createdAt,value
2023-03-12T00:02:50.569Z,-0.96
2023-03-12T00:06:34.018Z,-1.00
2023-03-12T00:19:56.620Z,-0.98
2023-03-12T00:23:29.493Z,-1.04
2023-03-12T00:37:08.447Z,-1.05
2023-03-12T00:40:39.075Z,-1.07
2023-03-12T00:44:09.684Z,-1.08
2023-03-12T00:51:01.194Z,-0.97
2023-03-12T00:54:34.197Z,-1.08
2023-03-12T00:58:12.953Z,-1.20
2023-03-12T01:11:35.617Z,-1.28
2023-03-12T01:15:11.335Z,-1.38
2023-03-12T01:39:05.816Z,-1.27
2023-03-12T01:42:41.294Z,-1.38
2023-03-12T02:02:52.724Z,-1.58
2023-03-12T02:06:23.049Z,-1.71
2023-03-12T02:09:55.861Z,-1.73
2023-03-12T02:13:28.452Z,-1.86
2023-03-12T02:17:01.522Z,-1.90
2023-03-12T02:20:41.406Z,-1.86
2023-03-12T02:44:36.844Z,-1.94
2023-03-12T02:48:11.882Z,-2.01
2023-03-12T02:51:50.414Z,-2.07
2023-03-12T03:01:48.396Z,-2.21
2023-03-12T03:05:23.461Z,-2.31
2023-03-12T03:22:11.796Z,-2.38
2023-03-12T03:25:44.591Z,-2.38
2023-03-12T03:29:36.345Z,-2.38
2023-03-12T03:33:03.715Z,-2.38
2023-03-12T03:46:25.636Z,-2.36
2023-03-12T03:49:58.917Z,-2.37
2023-03-12T03:53:22.596Z,-2.43
2023-03-12T04:10:15.184Z,-2.19
2023-03-12T04:13:48.293Z,-2.28
2023-03-12T04:17:21.884Z,-2.28
2023-03-12T04:38:15.495Z,-2.12
2023-03-12T04:41:49.508Z,-2.21
2023-03-12T04:55:13.255Z,-2.17
2023-03-12T04:58:58.002Z,-2.23
2023-03-12T05:02:30.884Z,-2.23
2023-03-12T05:06:04.652Z,-2.23
2023-03-12T05:09:17.472Z,-2.29
2023-03-12T05:12:35.920Z,-2.33
2023-03-12T05:16:10.392Z,-2.31
2023-03-12T05:40:18.986Z,-2.08
2023-03-12T05:43:53.539Z,-2.00
2023-03-12T05:47:26.861Z,-1.80
2023-03-12T06:08:01.413Z,-1.40
2023-03-12T06:11:35.817Z,-1.13
2023-03-12T06:15:02.457Z,-1.09
2023-03-12T06:18:36.911Z,-0.98
2023-03-12T06:35:23.309Z,-0.55
2023-03-12T06:38:57.297Z,-0.44
2023-03-12T06:42:32.951Z,-0.26
2023-03-12T06:45:59.493Z,-0.15
2023-03-12T06:59:22.131Z,0.53
2023-03-12T07:02:55.009Z,0.75
2023-03-12T07:06:28.404Z,0.89
2023-03-12T07:10:01.531Z,1.03
2023-03-12T07:13:34.657Z,1.32
2023-03-12T07:17:07.800Z,1.43
2023-03-12T07:20:43.599Z,1.55
2023-03-12T07:24:10.777Z,1.59
2023-03-12T07:43:44.835Z,2.35
2023-03-12T07:47:23.996Z,2.50
2023-03-12T08:11:19.823Z,3.17
2023-03-12T08:14:52.711Z,3.07
2023-03-12T08:42:04.188Z,4.12
2023-03-12T08:45:37.755Z,4.21
2023-03-12T08:49:13.545Z,4.13
2023-03-12T09:13:14.167Z,4.70
2023-03-12T09:16:48.164Z,4.74
2023-03-12T09:30:30.655Z,5.48
2023-03-12T09:34:03.441Z,5.13
2023-03-12T09:37:41.042Z,4.83
2023-03-12T09:47:47.331Z,5.19
2023-03-12T09:51:25.880Z,4.75
2023-03-12T09:55:04.633Z,5.04
2023-03-12T10:08:36.314Z,5.30
2023-03-12T10:12:17.497Z,5.41
2023-03-12T10:16:06.931Z,5.19
2023-03-12T10:33:01.553Z,4.80
2023-03-12T10:36:40.679Z,4.92
2023-03-12T10:40:19.620Z,5.16
2023-03-12T10:47:10.403Z,5.16
2023-03-12T10:50:44.314Z,5.10
2023-03-12T10:54:31.789Z,5.15
2023-03-12T11:04:50.842Z,5.51
2023-03-12T11:08:23.978Z,5.34
2023-03-12T11:12:13.078Z,5.44
2023-03-12T11:25:53.950Z,5.14
2023-03-12T11:29:36.940Z,5.08
2023-03-12T11:50:55.795Z,5.63
2023-03-12T11:55:06.117Z,5.58
2023-03-12T11:58:49.633Z,5.60
2023-03-12T12:02:37.086Z,5.51
2023-03-12T12:05:59.735Z,5.55
2023-03-12T12:09:35.840Z,5.65
2023-03-12T12:13:06.874Z,5.72
2023-03-12T12:16:19.567Z,5.75
2023-03-12T12:20:01.662Z,5.77
2023-03-12T12:23:45.978Z,5.69
2023-03-12T12:27:34.586Z,5.63
2023-03-12T13:41:06.679Z,6.42
2023-03-12T13:44:47.354Z,6.56
2023-03-12T13:48:23.029Z,6.65
2023-03-12T14:00:05.187Z,6.80
2023-03-12T14:03:40.461Z,6.71
2023-03-12T14:07:31.686Z,6.43
2023-03-12T14:24:40.137Z,6.03
2023-03-12T14:28:20.549Z,5.65
2023-03-12T14:31:59.799Z,5.49
2023-03-12T14:35:42.632Z,5.40
2023-03-12T14:39:29.350Z,5.33
2023-03-12T15:06:53.098Z,4.83
2023-03-12T15:10:31.458Z,4.54
2023-03-12T15:14:11.754Z,4.51
2023-03-12T15:24:53.580Z,4.38
2023-03-12T15:28:32.298Z,4.22
2023-03-12T15:31:55.668Z,4.18
2023-03-12T15:52:39.252Z,4.19
2023-03-12T15:56:30.858Z,4.10
2023-03-12T16:00:26.263Z,4.02
2023-03-12T16:04:04.919Z,3.99
2023-03-12T16:07:43.790Z,3.91
2023-03-12T16:11:29.979Z,3.83
2023-03-12T16:15:26.468Z,3.80
2023-03-12T17:00:52.752Z,3.43
2023-03-12T17:04:37.935Z,3.38
2023-03-12T17:08:14.839Z,3.32
2023-03-12T17:12:07.616Z,3.26
2023-03-12T17:29:51.103Z,3.14
2023-03-12T17:33:42.068Z,3.11
2023-03-12T17:47:37.460Z,3.16
2023-03-12T17:51:14.870Z,3.06
2023-03-12T17:54:52.194Z,2.99
2023-03-12T18:08:22.739Z,3.02
2023-03-12T18:12:05.332Z,2.98
2023-03-12T18:15:45.049Z,3.00
2023-03-12T18:19:25.096Z,2.99
2023-03-12T18:26:09.324Z,2.88
2023-03-12T18:29:51.691Z,2.76
2023-03-12T18:33:36.036Z,2.72
2023-03-12T18:50:34.773Z,2.58
2023-03-12T18:54:14.096Z,2.51
2023-03-12T18:57:55.310Z,2.44
2023-03-12T19:11:45.867Z,2.65
2023-03-12T19:15:33.341Z,2.59
2023-03-12T19:19:17.591Z,2.59
2023-03-12T19:47:01.345Z,2.39
2023-03-12T19:50:40.955Z,2.26
2023-03-12T19:57:35.660Z,2.29
2023-03-12T20:01:17.376Z,2.15
2023-03-12T20:04:57.901Z,2.14
2023-03-12T20:08:38.406Z,2.11
2023-03-12T20:12:24.975Z,2.09
2023-03-12T20:29:25.653Z,2.23
2023-03-12T20:33:04.304Z,2.17
2023-03-12T20:53:22.691Z,1.96
2023-03-12T20:56:55.766Z,1.91
2023-03-12T21:00:28.955Z,1.78
2023-03-12T21:13:59.365Z,1.88
2023-03-12T21:17:30.540Z,1.70
2023-03-12T21:34:34.137Z,1.79
2023-03-12T21:38:07.281Z,1.81
2023-03-12T21:41:41.424Z,1.83
2023-03-12T21:45:18.212Z,1.85
2023-03-12T21:59:25.248Z,1.81
2023-03-12T22:02:58.107Z,1.72
2023-03-12T22:06:31.053Z,1.69
2023-03-12T22:10:06.033Z,1.66
2023-03-12T22:13:39.184Z,1.65
2023-03-12T22:20:52.048Z,1.62
2023-03-12T22:24:26.355Z,1.67
2023-03-12T22:27:59.794Z,1.76
2023-03-12T22:31:34.803Z,1.79
2023-03-12T22:35:26.226Z,1.81
2023-03-12T22:37:58.579Z,1.74
2023-03-12T22:40:30.733Z,1.77
2023-03-12T22:43:03.295Z,1.91
2023-03-12T22:45:36.168Z,1.84
2023-03-12T22:48:10.828Z,1.79
2023-03-12T22:50:42.973Z,1.81
2023-03-12T22:54:09.257Z,1.87
2023-03-12T22:57:34.511Z,1.85
2023-03-12T23:01:10.537Z,1.84
2023-03-12T23:04:43.418Z,1.80
2023-03-12T23:08:17.400Z,1.84
2023-03-12T23:11:50.725Z,1.78
2023-03-12T23:15:17.258Z,1.74
2023-03-12T23:18:50.609Z,1.84
2023-03-12T23:22:27.749Z,1.84
2023-03-12T23:25:00.250Z,1.62
2023-03-12T23:27:32.467Z,1.71
2023-03-12T23:30:04.802Z,1.79
2023-03-12T23:32:38.022Z,1.84
2023-03-12T23:35:11.086Z,1.70
2023-03-12T23:37:43.845Z,1.76
2023-03-12T23:41:19.195Z,1.78
2023-03-12T23:44:41.377Z,1.85
2023-03-12T23:48:17.308Z,1.93
2023-03-12T23:51:50.017Z,2.02
2023-03-12T23:54:22.976Z,2.05
2023-03-12T23:56:56.460Z,2.19
2023-03-12T23:59:28.773Z,2.21
